Webcam Meteoipassi more information Webcam Meteoipassi


altri nostri siti meteo:

Pomeziameteo 1Sito sul meteo

MeteopomeziaSito sul meteo

Pomeziameteo DashboardSito sul meteo

Caput FrigorisSito sul meteo

BarcellonameteoSito sul meteo

ViterbometeoSito sul meteo

MeteotortoretoSito sul meteo

TortoretometeolidoSito sul meteo

MeteoGonzagaSito sul meteo



There is a communication problem. Go directly to the Meteoalarm site : www.meteoalarm.eu and check the Weather-warnings there .


Notice: Undefined offset: 6 in /web/htdocs/www.meteoipassi.it/home/weather28/metar/metarDisplay.php on line 75

Notice: Undefined offset: 5 in /web/htdocs/www.meteoipassi.it/home/weather28/metar/metarDisplay.php on line 75

Report METAR

   
LIRQ - Firenze
Dati ricevuti: Feb 4 2023 2:50 am
Parzialmente nuvoloso  
Parzialmente nuvoloso  
   Vento: SE 7.4 km/h
Vento: SE 7.4 km/h
Temperatura: 8°C
Temperatura Vento: 7°C
P.to Rugiada: 7°C
Umidita: 93%
Barometro: 1022 hPa
Nuvole: Parzialmente nuvoloso
Visibilita: oltre 10 km
dettagli cloud: Parzialmente nuvoloso 762 m
LIRQ 040150Z AUTO 11004KT 9999 SCT025/// 08/07 Q1022
LIRP - Lucca
Dati ricevuti: Feb 4 2023 2:45 am
Shallow Fog, Parzialmente nuvoloso  
Shallow Fog, Parzialmente nuvoloso  
   Vento: Variabile 1.9 km/h
Vento: Variabile 1.9 km/h
Temperatura: 7°C
P.to Rugiada: 6°C
Umidita: 93%
Barometro: 1023 hPa
Nuvole: Parzialmente nuvoloso
Visibilita: oltre 10 km
dettagli cloud: Parzialmente nuvoloso 914.4 m
LIRP 040145Z VRB01KT 9999 MIFG SCT030 07/06 Q1023 NOSIG
LIPE - Bologna
Dati ricevuti: Feb 4 2023 2:50 am
Sereno  
Sereno  
   Vento: SW 7.4 km/h
Vento: SW 7.4 km/h
Temperatura: 2°C
Temperatura Vento: 0°C
P.to Rugiada: 0°C
Umidita: 87%
Barometro: 1019 hPa
Visibilita: oltre 10 km
dettagli cloud: Sereno
LIPE 040150Z 22004KT CAVOK 02/00 Q1019
LIMP - Parma
Dati ricevuti: Feb 3 2023 10:50 pm
DATI Obsoleti
Nebbia, Parzialmente nuvoloso  
Nebbia, Parzialmente nuvoloso  
   Vento: NNW 11.1 km/h
Vento: NNW 11.1 km/h
Temperatura: 3°C
Temperatura Vento: 0°C
P.to Rugiada: 2°C
Umidita: 93%
Barometro: 1020 hPa
Nuvole: Parzialmente nuvoloso
Visibilita: 3 km
dettagli cloud: Parzialmente nuvoloso
LIMP 032150Z 34006KT 290V020 2500 BR NSC 03/02 Q1020
  

Script sviluppato da  Saratoga-weather.org Adattato per il modello da  Weerstation Leuven

Potete trovare le nostre info meteo anche a:

European Weather Network

Weather Underground

AWEKAS

HAMweather, WeatherForYou, PWS Weather

Strumentazione usata:

Stazione meteo
Davis Vantage Vue

Programma gestore dati meteo
WVIEW

Server per i dati meteo
WDS-5

Provider
Anemos WDS-5

Davis Vantage Vue

WVIEW

WDS-5

Anemos WDS-5